sensor_id;sensor_type;location;lat;lon;timestamp;temperature;humidity
16827;DHT22;8530;49.540;8.576;2024-03-08T00:00:47;5.30;63.70
16827;DHT22;8530;49.540;8.576;2024-03-08T00:03:14;5.40;64.00
16827;DHT22;8530;49.540;8.576;2024-03-08T00:05:42;5.40;64.10
16827;DHT22;8530;49.540;8.576;2024-03-08T00:08:08;5.40;64.30
16827;DHT22;8530;49.540;8.576;2024-03-08T00:10:35;5.40;64.40
16827;DHT22;8530;49.540;8.576;2024-03-08T00:13:04;5.40;64.60
16827;DHT22;8530;49.540;8.576;2024-03-08T00:15:31;5.40;64.70
16827;DHT22;8530;49.540;8.576;2024-03-08T00:17:58;5.40;64.90
16827;DHT22;8530;49.540;8.576;2024-03-08T00:20:24;5.40;65.00
16827;DHT22;8530;49.540;8.576;2024-03-08T00:22:52;5.40;65.10
16827;DHT22;8530;49.540;8.576;2024-03-08T00:25:19;5.30;65.30
16827;DHT22;8530;49.540;8.576;2024-03-08T00:27:46;5.30;65.50
16827;DHT22;8530;49.540;8.576;2024-03-08T00:30:14;5.20;65.50
16827;DHT22;8530;49.540;8.576;2024-03-08T00:32:41;5.20;65.70
16827;DHT22;8530;49.540;8.576;2024-03-08T00:35:08;5.20;65.90
16827;DHT22;8530;49.540;8.576;2024-03-08T00:37:35;5.20;66.10
16827;DHT22;8530;49.540;8.576;2024-03-08T00:40:03;5.20;66.30
16827;DHT22;8530;49.540;8.576;2024-03-08T00:42:32;5.20;66.50
16827;DHT22;8530;49.540;8.576;2024-03-08T00:44:59;5.20;66.60
16827;DHT22;8530;49.540;8.576;2024-03-08T00:47:26;5.20;66.80
16827;DHT22;8530;49.540;8.576;2024-03-08T00:49:53;5.10;66.80
16827;DHT22;8530;49.540;8.576;2024-03-08T00:52:22;5.10;67.00
16827;DHT22;8530;49.540;8.576;2024-03-08T00:54:49;5.10;67.20
16827;DHT22;8530;49.540;8.576;2024-03-08T00:57:17;5.00;67.40
16827;DHT22;8530;49.540;8.576;2024-03-08T00:59:44;5.00;67.50
16827;DHT22;8530;49.540;8.576;2024-03-08T01:02:11;5.00;67.80
16827;DHT22;8530;49.540;8.576;2024-03-08T01:04:38;5.00;68.00
16827;DHT22;8530;49.540;8.576;2024-03-08T01:07:04;5.00;68.20
16827;DHT22;8530;49.540;8.576;2024-03-08T01:09:31;5.00;68.30
16827;DHT22;8530;49.540;8.576;2024-03-08T01:11:58;5.00;68.60
16827;DHT22;8530;49.540;8.576;2024-03-08T01:14:26;5.00;68.70
16827;DHT22;8530;49.540;8.576;2024-03-08T01:16:54;5.00;68.90
16827;DHT22;8530;49.540;8.576;2024-03-08T01:19:21;5.00;69.00
16827;DHT22;8530;49.540;8.576;2024-03-08T01:21:49;5.00;69.20
16827;DHT22;8530;49.540;8.576;2024-03-08T01:24:16;5.00;69.40
16827;DHT22;8530;49.540;8.576;2024-03-08T01:26:42;5.00;69.70
16827;DHT22;8530;49.540;8.576;2024-03-08T01:29:10;5.00;69.90
16827;DHT22;8530;49.540;8.576;2024-03-08T01:31:38;5.00;70.00
16827;DHT22;8530;49.540;8.576;2024-03-08T01:34:05;5.00;70.10
16827;DHT22;8530;49.540;8.576;2024-03-08T01:36:31;4.90;70.20
16827;DHT22;8530;49.540;8.576;2024-03-08T01:38:58;4.90;70.40
16827;DHT22;8530;49.540;8.576;2024-03-08T01:41:25;4.90;70.60
16827;DHT22;8530;49.540;8.576;2024-03-08T01:43:55;4.90;70.70
16827;DHT22;8530;49.540;8.576;2024-03-08T01:46:21;4.80;70.80
16827;DHT22;8530;49.540;8.576;2024-03-08T01:48:50;4.80;71.00
16827;DHT22;8530;49.540;8.576;2024-03-08T01:51:18;4.70;71.10
16827;DHT22;8530;49.540;8.576;2024-03-08T01:53:46;4.60;71.20
16827;DHT22;8530;49.540;8.576;2024-03-08T01:56:13;4.60;71.50
16827;DHT22;8530;49.540;8.576;2024-03-08T01:58:41;4.60;71.80
16827;DHT22;8530;49.540;8.576;2024-03-08T02:01:11;4.70;72.00
16827;DHT22;8530;49.540;8.576;2024-03-08T02:03:37;4.70;72.10
16827;DHT22;8530;49.540;8.576;2024-03-08T02:06:05;4.70;72.20
16827;DHT22;8530;49.540;8.576;2024-03-08T02:08:35;4.70;72.40
16827;DHT22;8530;49.540;8.576;2024-03-08T02:11:02;4.70;72.60
16827;DHT22;8530;49.540;8.576;2024-03-08T02:13:30;4.70;72.70
16827;DHT22;8530;49.540;8.576;2024-03-08T02:15:58;4.60;72.70
16827;DHT22;8530;49.540;8.576;2024-03-08T02:18:26;4.60;72.90
16827;DHT22;8530;49.540;8.576;2024-03-08T02:20:55;4.50;72.90
16827;DHT22;8530;49.540;8.576;2024-03-08T02:23:22;4.50;73.20
16827;DHT22;8530;49.540;8.576;2024-03-08T02:25:50;4.50;73.30
16827;DHT22;8530;49.540;8.576;2024-03-08T02:28:17;4.40;73.30
16827;DHT22;8530;49.540;8.576;2024-03-08T02:30:45;4.40;73.50
16827;DHT22;8530;49.540;8.576;2024-03-08T02:33:13;4.30;73.60
16827;DHT22;8530;49.540;8.576;2024-03-08T02:35:42;4.20;73.70
16827;DHT22;8530;49.540;8.576;2024-03-08T02:38:12;4.20;74.00
16827;DHT22;8530;49.540;8.576;2024-03-08T02:40:42;4.20;74.30
16827;DHT22;8530;49.540;8.576;2024-03-08T02:43:08;4.10;74.40
16827;DHT22;8530;49.540;8.576;2024-03-08T02:45:35;4.10;74.60
16827;DHT22;8530;49.540;8.576;2024-03-08T02:48:02;4.10;74.70
16827;DHT22;8530;49.540;8.576;2024-03-08T02:50:29;4.20;75.00
16827;DHT22;8530;49.540;8.576;2024-03-08T02:52:56;4.20;75.10
16827;DHT22;8530;49.540;8.576;2024-03-08T02:55:24;4.20;75.20
16827;DHT22;8530;49.540;8.576;2024-03-08T02:57:51;4.20;75.20
16827;DHT22;8530;49.540;8.576;2024-03-08T03:00:20;4.20;75.30
16827;DHT22;8530;49.540;8.576;2024-03-08T03:02:48;4.20;75.50
16827;DHT22;8530;49.540;8.576;2024-03-08T03:05:17;4.20;75.70
16827;DHT22;8530;49.540;8.576;2024-03-08T03:07:44;4.20;75.80
16827;DHT22;8530;49.540;8.576;2024-03-08T03:10:10;4.20;75.90
16827;DHT22;8530;49.540;8.576;2024-03-08T03:12:44;4.20;75.90
16827;DHT22;8530;49.540;8.576;2024-03-08T03:15:11;4.10;76.00
16827;DHT22;8530;49.540;8.576;2024-03-08T03:17:38;4.10;76.20
16827;DHT22;8530;49.540;8.576;2024-03-08T03:20:06;4.10;76.40
16827;DHT22;8530;49.540;8.576;2024-03-08T03:22:36;4.10;76.50
16827;DHT22;8530;49.540;8.576;2024-03-08T03:25:04;4.00;76.50
16827;DHT22;8530;49.540;8.576;2024-03-08T03:27:32;4.00;77.30
16827;DHT22;8530;49.540;8.576;2024-03-08T03:30:00;4.00;76.80
16827;DHT22;8530;49.540;8.576;2024-03-08T03:32:46;4.00;77.00
16827;DHT22;8530;49.540;8.576;2024-03-08T03:35:13;4.00;77.10
16827;DHT22;8530;49.540;8.576;2024-03-08T03:37:40;4.00;77.20
16827;DHT22;8530;49.540;8.576;2024-03-08T03:40:08;4.00;77.30
16827;DHT22;8530;49.540;8.576;2024-03-08T03:42:35;3.90;77.40
16827;DHT22;8530;49.540;8.576;2024-03-08T03:45:05;3.90;77.60
16827;DHT22;8530;49.540;8.576;2024-03-08T03:47:32;3.90;77.70
16827;DHT22;8530;49.540;8.576;2024-03-08T03:49:59;3.90;77.90
16827;DHT22;8530;49.540;8.576;2024-03-08T03:52:27;3.90;78.10
16827;DHT22;8530;49.540;8.576;2024-03-08T03:54:54;3.90;78.10
16827;DHT22;8530;49.540;8.576;2024-03-08T03:57:20;3.90;78.30
16827;DHT22;8530;49.540;8.576;2024-03-08T03:59:48;3.90;78.40
16827;DHT22;8530;49.540;8.576;2024-03-08T04:02:17;3.80;78.40
16827;DHT22;8530;49.540;8.576;2024-03-08T04:04:46;3.80;78.60
16827;DHT22;8530;49.540;8.576;2024-03-08T04:07:13;3.80;78.70
16827;DHT22;8530;49.540;8.576;2024-03-08T04:09:40;3.70;78.70
16827;DHT22;8530;49.540;8.576;2024-03-08T04:12:07;3.70;79.00
16827;DHT22;8530;49.540;8.576;2024-03-08T04:14:35;3.80;79.90
16827;DHT22;8530;49.540;8.576;2024-03-08T04:17:02;3.80;79.40
16827;DHT22;8530;49.540;8.576;2024-03-08T04:19:30;3.80;79.40
16827;DHT22;8530;49.540;8.576;2024-03-08T04:21:57;3.80;79.40
16827;DHT22;8530;49.540;8.576;2024-03-08T04:24:23;3.70;79.40
16827;DHT22;8530;49.540;8.576;2024-03-08T04:26:50;3.70;79.60
16827;DHT22;8530;49.540;8.576;2024-03-08T04:29:18;3.60;79.80
16827;DHT22;8530;49.540;8.576;2024-03-08T04:31:45;3.60;80.50
16827;DHT22;8530;49.540;8.576;2024-03-08T04:34:12;3.60;80.10
16827;DHT22;8530;49.540;8.576;2024-03-08T04:36:41;3.50;80.10
16827;DHT22;8530;49.540;8.576;2024-03-08T04:39:08;3.50;80.20
16827;DHT22;8530;49.540;8.576;2024-03-08T04:41:38;3.50;80.30
16827;DHT22;8530;49.540;8.576;2024-03-08T04:44:05;3.40;80.40
16827;DHT22;8530;49.540;8.576;2024-03-08T04:46:32;3.40;80.60
16827;DHT22;8530;49.540;8.576;2024-03-08T04:49:00;3.40;80.70
16827;DHT22;8530;49.540;8.576;2024-03-08T04:51:27;3.40;80.80
16827;DHT22;8530;49.540;8.576;2024-03-08T04:53:55;3.30;80.80
16827;DHT22;8530;49.540;8.576;2024-03-08T04:56:22;3.30;81.00
16827;DHT22;8530;49.540;8.576;2024-03-08T04:58:49;3.30;81.10
16827;DHT22;8530;49.540;8.576;2024-03-08T05:01:15;3.30;81.20
16827;DHT22;8530;49.540;8.576;2024-03-08T05:03:42;3.20;81.30
16827;DHT22;8530;49.540;8.576;2024-03-08T05:06:10;3.30;81.50
16827;DHT22;8530;49.540;8.576;2024-03-08T05:08:37;3.30;81.70
16827;DHT22;8530;49.540;8.576;2024-03-08T05:11:05;3.20;81.70
16827;DHT22;8530;49.540;8.576;2024-03-08T05:13:32;3.20;82.00
16827;DHT22;8530;49.540;8.576;2024-03-08T05:15:59;3.30;82.20
16827;DHT22;8530;49.540;8.576;2024-03-08T05:18:26;3.30;82.40
16827;DHT22;8530;49.540;8.576;2024-03-08T05:20:53;3.30;82.60
16827;DHT22;8530;49.540;8.576;2024-03-08T05:23:20;3.40;82.80
16827;DHT22;8530;49.540;8.576;2024-03-08T05:25:47;3.40;82.90
16827;DHT22;8530;49.540;8.576;2024-03-08T05:28:15;3.40;83.00
16827;DHT22;8530;49.540;8.576;2024-03-08T05:30:42;3.40;83.10
16827;DHT22;8530;49.540;8.576;2024-03-08T05:33:09;3.40;83.20
16827;DHT22;8530;49.540;8.576;2024-03-08T05:35:36;3.40;83.30
16827;DHT22;8530;49.540;8.576;2024-03-08T05:38:03;3.40;83.40
16827;DHT22;8530;49.540;8.576;2024-03-08T05:40:30;3.40;83.50
16827;DHT22;8530;49.540;8.576;2024-03-08T05:42:58;3.50;83.70
16827;DHT22;8530;49.540;8.576;2024-03-08T05:45:26;3.50;83.80
16827;DHT22;8530;49.540;8.576;2024-03-08T05:47:52;3.50;83.80
16827;DHT22;8530;49.540;8.576;2024-03-08T05:50:19;3.50;83.90
16827;DHT22;8530;49.540;8.576;2024-03-08T05:52:46;3.50;84.60
16827;DHT22;8530;49.540;8.576;2024-03-08T05:55:14;3.40;84.10
16827;DHT22;8530;49.540;8.576;2024-03-08T05:57:40;3.40;84.30
16827;DHT22;8530;49.540;8.576;2024-03-08T06:00:08;3.40;84.50
16827;DHT22;8530;49.540;8.576;2024-03-08T06:02:38;3.40;84.60
16827;DHT22;8530;49.540;8.576;2024-03-08T06:05:08;3.40;84.80
16827;DHT22;8530;49.540;8.576;2024-03-08T06:07:35;3.50;85.00
16827;DHT22;8530;49.540;8.576;2024-03-08T06:10:02;3.40;85.00
16827;DHT22;8530;49.540;8.576;2024-03-08T06:12:29;3.50;85.30
16827;DHT22;8530;49.540;8.576;2024-03-08T06:14:59;3.50;85.40
16827;DHT22;8530;49.540;8.576;2024-03-08T06:17:25;3.50;85.60
16827;DHT22;8530;49.540;8.576;2024-03-08T06:19:53;3.60;85.70
16827;DHT22;8530;49.540;8.576;2024-03-08T06:22:20;3.60;86.30
16827;DHT22;8530;49.540;8.576;2024-03-08T06:24:47;3.60;85.80
16827;DHT22;8530;49.540;8.576;2024-03-08T06:27:14;3.70;86.10
16827;DHT22;8530;49.540;8.576;2024-03-08T06:29:41;3.80;86.40
16827;DHT22;8530;49.540;8.576;2024-03-08T06:32:07;3.80;86.60
16827;DHT22;8530;49.540;8.576;2024-03-08T06:34:34;3.90;86.80
16827;DHT22;8530;49.540;8.576;2024-03-08T06:37:02;4.10;87.00
16827;DHT22;8530;49.540;8.576;2024-03-08T06:39:29;4.10;87.00
16827;DHT22;8530;49.540;8.576;2024-03-08T06:41:57;4.20;87.10
16827;DHT22;8530;49.540;8.576;2024-03-08T06:44:24;4.30;87.00
16827;DHT22;8530;49.540;8.576;2024-03-08T06:46:51;4.40;87.10
16827;DHT22;8530;49.540;8.576;2024-03-08T06:49:17;4.50;87.00
16827;DHT22;8530;49.540;8.576;2024-03-08T06:51:45;4.70;87.10
16827;DHT22;8530;49.540;8.576;2024-03-08T06:54:13;4.70;87.00
16827;DHT22;8530;49.540;8.576;2024-03-08T06:56:39;4.80;87.00
16827;DHT22;8530;49.540;8.576;2024-03-08T06:59:06;4.90;87.10
16827;DHT22;8530;49.540;8.576;2024-03-08T07:01:36;5.00;87.20
16827;DHT22;8530;49.540;8.576;2024-03-08T07:04:04;5.10;87.20
16827;DHT22;8530;49.540;8.576;2024-03-08T07:06:32;5.20;87.10
16827;DHT22;8530;49.540;8.576;2024-03-08T07:08:59;5.30;87.00
16827;DHT22;8530;49.540;8.576;2024-03-08T07:11:27;5.40;86.80
16827;DHT22;8530;49.540;8.576;2024-03-08T07:13:54;5.50;86.70
16827;DHT22;8530;49.540;8.576;2024-03-08T07:16:21;5.60;86.70
16827;DHT22;8530;49.540;8.576;2024-03-08T07:18:47;5.70;86.60
16827;DHT22;8530;49.540;8.576;2024-03-08T07:21:17;5.80;86.60
16827;DHT22;8530;49.540;8.576;2024-03-08T07:23:45;5.90;86.40
16827;DHT22;8530;49.540;8.576;2024-03-08T07:26:33;6.00;86.30
16827;DHT22;8530;49.540;8.576;2024-03-08T07:28:59;6.10;86.20
16827;DHT22;8530;49.540;8.576;2024-03-08T07:31:26;6.20;86.00
16827;DHT22;8530;49.540;8.576;2024-03-08T07:34:03;6.40;86.00
16827;DHT22;8530;49.540;8.576;2024-03-08T07:36:33;6.50;86.10
16827;DHT22;8530;49.540;8.576;2024-03-08T07:39:00;7.10;88.30
16827;DHT22;8530;49.540;8.576;2024-03-08T07:41:27;8.10;90.60
16827;DHT22;8530;49.540;8.576;2024-03-08T07:43:55;9.00;91.40
16827;DHT22;8530;49.540;8.576;2024-03-08T07:46:22;9.90;91.90
16827;DHT22;8530;49.540;8.576;2024-03-08T07:48:49;10.70;91.50
16827;DHT22;8530;49.540;8.576;2024-03-08T07:51:17;11.40;91.20
16827;DHT22;8530;49.540;8.576;2024-03-08T07:53:44;12.10;90.50
16827;DHT22;8530;49.540;8.576;2024-03-08T07:56:10;12.60;90.00
16827;DHT22;8530;49.540;8.576;2024-03-08T07:58:39;13.10;89.10
16827;DHT22;8530;49.540;8.576;2024-03-08T08:01:15;13.70;87.80
16827;DHT22;8530;49.540;8.576;2024-03-08T08:03:42;14.10;83.60
16827;DHT22;8530;49.540;8.576;2024-03-08T08:06:08;14.10;80.00
16827;DHT22;8530;49.540;8.576;2024-03-08T08:08:35;14.30;78.70
16827;DHT22;8530;49.540;8.576;2024-03-08T08:11:02;14.70;79.30
16827;DHT22;8530;49.540;8.576;2024-03-08T08:13:29;15.30;79.80
16827;DHT22;8530;49.540;8.576;2024-03-08T08:15:58;15.90;79.30
16827;DHT22;8530;49.540;8.576;2024-03-08T08:18:26;16.70;78.60
16827;DHT22;8530;49.540;8.576;2024-03-08T08:20:52;17.60;75.70
16827;DHT22;8530;49.540;8.576;2024-03-08T08:23:19;18.50;76.30
16827;DHT22;8530;49.540;8.576;2024-03-08T08:25:46;19.50;74.70
16827;DHT22;8530;49.540;8.576;2024-03-08T08:28:15;20.30;70.80
16827;DHT22;8530;49.540;8.576;2024-03-08T08:30:43;21.10;67.10
16827;DHT22;8530;49.540;8.576;2024-03-08T08:33:09;21.70;62.10
16827;DHT22;8530;49.540;8.576;2024-03-08T08:35:37;22.20;57.80
16827;DHT22;8530;49.540;8.576;2024-03-08T08:38:04;22.70;55.30
16827;DHT22;8530;49.540;8.576;2024-03-08T08:40:33;23.20;52.80
16827;DHT22;8530;49.540;8.576;2024-03-08T08:43:01;23.40;49.90
16827;DHT22;8530;49.540;8.576;2024-03-08T08:45:29;23.70;47.90
16827;DHT22;8530;49.540;8.576;2024-03-08T08:47:56;24.10;46.40
16827;DHT22;8530;49.540;8.576;2024-03-08T08:50:25;24.00;43.20
16827;DHT22;8530;49.540;8.576;2024-03-08T08:52:55;23.50;40.90
16827;DHT22;8530;49.540;8.576;2024-03-08T08:55:22;22.90;38.60
16827;DHT22;8530;49.540;8.576;2024-03-08T08:57:50;22.60;36.90
16827;DHT22;8530;49.540;8.576;2024-03-08T09:00:18;21.90;34.60
16827;DHT22;8530;49.540;8.576;2024-03-08T09:02:46;21.00;32.80
16827;DHT22;8530;49.540;8.576;2024-03-08T09:05:13;19.70;30.50
16827;DHT22;8530;49.540;8.576;2024-03-08T09:07:42;18.40;29.60
16827;DHT22;8530;49.540;8.576;2024-03-08T09:10:11;17.00;29.00
16827;DHT22;8530;49.540;8.576;2024-03-08T09:12:39;15.90;28.80
16827;DHT22;8530;49.540;8.576;2024-03-08T09:15:07;14.90;28.70
16827;DHT22;8530;49.540;8.576;2024-03-08T09:17:36;14.00;28.70
16827;DHT22;8530;49.540;8.576;2024-03-08T09:20:06;13.30;28.90
16827;DHT22;8530;49.540;8.576;2024-03-08T09:22:33;12.60;29.00
16827;DHT22;8530;49.540;8.576;2024-03-08T09:24:59;12.20;29.40
16827;DHT22;8530;49.540;8.576;2024-03-08T09:27:27;11.90;29.80
16827;DHT22;8530;49.540;8.576;2024-03-08T09:29:55;11.60;30.10
16827;DHT22;8530;49.540;8.576;2024-03-08T09:32:22;11.40;30.40
16827;DHT22;8530;49.540;8.576;2024-03-08T09:34:49;11.20;30.80
16827;DHT22;8530;49.540;8.576;2024-03-08T09:37:16;10.90;31.10
16827;DHT22;8530;49.540;8.576;2024-03-08T09:39:44;10.70;31.20
16827;DHT22;8530;49.540;8.576;2024-03-08T09:42:11;10.60;31.60
16827;DHT22;8530;49.540;8.576;2024-03-08T09:44:44;10.50;32.10
16827;DHT22;8530;49.540;8.576;2024-03-08T09:47:13;10.50;32.50
16827;DHT22;8530;49.540;8.576;2024-03-08T09:49:40;10.40;32.70
16827;DHT22;8530;49.540;8.576;2024-03-08T09:52:09;10.40;33.10
16827;DHT22;8530;49.540;8.576;2024-03-08T09:54:37;10.50;33.40
16827;DHT22;8530;49.540;8.576;2024-03-08T09:57:06;10.50;33.90
16827;DHT22;8530;49.540;8.576;2024-03-08T09:59:34;10.50;34.00
16827;DHT22;8530;49.540;8.576;2024-03-08T10:02:18;10.50;34.40
16827;DHT22;8530;49.540;8.576;2024-03-08T10:04:44;10.50;34.50
16827;DHT22;8530;49.540;8.576;2024-03-08T10:07:14;10.50;34.80
16827;DHT22;8530;49.540;8.576;2024-03-08T10:09:41;10.60;35.10
16827;DHT22;8530;49.540;8.576;2024-03-08T10:12:12;10.70;35.40
16827;DHT22;8530;49.540;8.576;2024-03-08T10:14:40;10.90;35.70
16827;DHT22;8530;49.540;8.576;2024-03-08T10:17:07;11.00;35.90
16827;DHT22;8530;49.540;8.576;2024-03-08T10:19:35;11.00;35.90
16827;DHT22;8530;49.540;8.576;2024-03-08T10:22:02;11.00;36.30
16827;DHT22;8530;49.540;8.576;2024-03-08T10:24:30;11.00;36.40
16827;DHT22;8530;49.540;8.576;2024-03-08T10:26:59;11.10;36.70
16827;DHT22;8530;49.540;8.576;2024-03-08T10:29:26;11.20;36.70
16827;DHT22;8530;49.540;8.576;2024-03-08T10:31:54;11.20;36.80
16827;DHT22;8530;49.540;8.576;2024-03-08T10:34:21;11.10;36.80
16827;DHT22;8530;49.540;8.576;2024-03-08T10:36:51;11.10;37.10
16827;DHT22;8530;49.540;8.576;2024-03-08T10:39:22;11.20;37.30
16827;DHT22;8530;49.540;8.576;2024-03-08T10:41:53;11.30;37.60
16827;DHT22;8530;49.540;8.576;2024-03-08T10:44:32;11.20;37.50
16827;DHT22;8530;49.540;8.576;2024-03-08T10:47:06;11.20;37.60
16827;DHT22;8530;49.540;8.576;2024-03-08T10:49:38;11.30;37.80
16827;DHT22;8530;49.540;8.576;2024-03-08T10:52:06;11.40;38.10
16827;DHT22;8530;49.540;8.576;2024-03-08T10:54:36;11.60;38.30
16827;DHT22;8530;49.540;8.576;2024-03-08T10:57:05;11.70;38.40
16827;DHT22;8530;49.540;8.576;2024-03-08T10:59:34;11.80;38.40
16827;DHT22;8530;49.540;8.576;2024-03-08T11:02:01;11.90;38.60
16827;DHT22;8530;49.540;8.576;2024-03-08T11:04:31;11.90;38.60
16827;DHT22;8530;49.540;8.576;2024-03-08T11:07:00;12.10;38.80
16827;DHT22;8530;49.540;8.576;2024-03-08T11:09:35;12.10;38.70
16827;DHT22;8530;49.540;8.576;2024-03-08T11:12:19;11.90;38.50
16827;DHT22;8530;49.540;8.576;2024-03-08T11:14:47;11.70;38.60
16827;DHT22;8530;49.540;8.576;2024-03-08T11:17:15;11.40;38.50
16827;DHT22;8530;49.540;8.576;2024-03-08T11:19:47;11.30;38.90
16827;DHT22;8530;49.540;8.576;2024-03-08T11:22:28;11.30;39.00
16827;DHT22;8530;49.540;8.576;2024-03-08T11:25:02;11.20;39.10
16827;DHT22;8530;49.540;8.576;2024-03-08T11:27:29;11.30;39.40
16827;DHT22;8530;49.540;8.576;2024-03-08T11:30:00;11.40;39.50
16827;DHT22;8530;49.540;8.576;2024-03-08T11:32:35;11.60;39.70
16827;DHT22;8530;49.540;8.576;2024-03-08T11:35:06;11.70;39.70
16827;DHT22;8530;49.540;8.576;2024-03-08T11:37:34;11.90;39.80
16827;DHT22;8530;49.540;8.576;2024-03-08T11:40:11;12.10;39.90
16827;DHT22;8530;49.540;8.576;2024-03-08T11:42:40;12.20;39.90
16827;DHT22;8530;49.540;8.576;2024-03-08T11:45:08;12.30;39.80
16827;DHT22;8530;49.540;8.576;2024-03-08T11:47:36;12.30;39.90
16827;DHT22;8530;49.540;8.576;2024-03-08T11:50:06;12.30;39.90
16827;DHT22;8530;49.540;8.576;2024-03-08T11:52:36;12.40;40.10
16827;DHT22;8530;49.540;8.576;2024-03-08T11:55:05;12.50;40.10
16827;DHT22;8530;49.540;8.576;2024-03-08T11:57:33;12.70;40.30
16827;DHT22;8530;49.540;8.576;2024-03-08T12:00:00;12.80;40.30
16827;DHT22;8530;49.540;8.576;2024-03-08T12:02:32;12.90;40.30
16827;DHT22;8530;49.540;8.576;2024-03-08T12:05:01;13.00;40.20
16827;DHT22;8530;49.540;8.576;2024-03-08T12:07:28;12.90;40.10
16827;DHT22;8530;49.540;8.576;2024-03-08T12:10:16;13.00;40.20
16827;DHT22;8530;49.540;8.576;2024-03-08T12:12:44;13.10;40.30
16827;DHT22;8530;49.540;8.576;2024-03-08T12:15:10;13.10;40.30
16827;DHT22;8530;49.540;8.576;2024-03-08T12:17:38;13.10;40.20
16827;DHT22;8530;49.540;8.576;2024-03-08T12:20:12;13.20;40.10
16827;DHT22;8530;49.540;8.576;2024-03-08T12:22:41;13.20;40.10
16827;DHT22;8530;49.540;8.576;2024-03-08T12:25:09;13.30;40.30
16827;DHT22;8530;49.540;8.576;2024-03-08T12:27:38;13.40;40.80
16827;DHT22;8530;49.540;8.576;2024-03-08T12:30:17;13.40;40.00
16827;DHT22;8530;49.540;8.576;2024-03-08T12:32:47;13.40;40.10
16827;DHT22;8530;49.540;8.576;2024-03-08T12:35:14;13.60;40.30
16827;DHT22;8530;49.540;8.576;2024-03-08T12:37:42;13.80;40.30
16827;DHT22;8530;49.540;8.576;2024-03-08T12:40:09;13.90;40.20
16827;DHT22;8530;49.540;8.576;2024-03-08T12:42:38;14.00;40.10
16827;DHT22;8530;49.540;8.576;2024-03-08T12:45:06;14.10;40.10
16827;DHT22;8530;49.540;8.576;2024-03-08T12:47:35;14.00;39.60
16827;DHT22;8530;49.540;8.576;2024-03-08T12:50:02;13.90;39.40
16827;DHT22;8530;49.540;8.576;2024-03-08T12:52:29;13.80;40.00
16827;DHT22;8530;49.540;8.576;2024-03-08T12:54:56;13.80;39.40
16827;DHT22;8530;49.540;8.576;2024-03-08T12:57:23;13.80;39.60
16827;DHT22;8530;49.540;8.576;2024-03-08T12:59:53;13.70;39.40
16827;DHT22;8530;49.540;8.576;2024-03-08T13:02:20;13.80;39.60
16827;DHT22;8530;49.540;8.576;2024-03-08T13:04:49;13.80;39.60
16827;DHT22;8530;49.540;8.576;2024-03-08T13:07:21;13.90;39.70
16827;DHT22;8530;49.540;8.576;2024-03-08T13:09:49;13.90;39.50
16827;DHT22;8530;49.540;8.576;2024-03-08T13:12:16;13.90;39.50
16827;DHT22;8530;49.540;8.576;2024-03-08T13:14:42;14.00;39.60
16827;DHT22;8530;49.540;8.576;2024-03-08T13:17:10;14.10;39.70
16827;DHT22;8530;49.540;8.576;2024-03-08T13:19:38;14.20;39.60
16827;DHT22;8530;49.540;8.576;2024-03-08T13:22:05;14.20;39.40
16827;DHT22;8530;49.540;8.576;2024-03-08T13:24:32;14.10;39.20
16827;DHT22;8530;49.540;8.576;2024-03-08T13:26:59;14.00;39.20
16827;DHT22;8530;49.540;8.576;2024-03-08T13:29:26;14.00;39.20
16827;DHT22;8530;49.540;8.576;2024-03-08T13:31:53;14.10;39.40
16827;DHT22;8530;49.540;8.576;2024-03-08T13:34:23;14.10;39.40
16827;DHT22;8530;49.540;8.576;2024-03-08T13:36:55;14.20;39.40
16827;DHT22;8530;49.540;8.576;2024-03-08T13:39:25;14.20;39.30
16827;DHT22;8530;49.540;8.576;2024-03-08T13:41:52;14.20;39.40
16827;DHT22;8530;49.540;8.576;2024-03-08T13:44:19;14.20;39.40
16827;DHT22;8530;49.540;8.576;2024-03-08T13:46:46;14.20;39.30
16827;DHT22;8530;49.540;8.576;2024-03-08T13:49:16;14.20;39.30
16827;DHT22;8530;49.540;8.576;2024-03-08T13:51:44;14.10;39.30
16827;DHT22;8530;49.540;8.576;2024-03-08T13:54:11;14.10;39.30
16827;DHT22;8530;49.540;8.576;2024-03-08T13:56:38;14.20;39.40
16827;DHT22;8530;49.540;8.576;2024-03-08T13:59:04;14.30;39.40
16827;DHT22;8530;49.540;8.576;2024-03-08T14:01:31;14.30;39.30
16827;DHT22;8530;49.540;8.576;2024-03-08T14:04:01;14.30;39.20
16827;DHT22;8530;49.540;8.576;2024-03-08T14:06:29;14.30;39.20
16827;DHT22;8530;49.540;8.576;2024-03-08T14:08:57;14.30;39.10
16827;DHT22;8530;49.540;8.576;2024-03-08T14:11:24;14.20;39.00
16827;DHT22;8530;49.540;8.576;2024-03-08T14:13:50;14.20;39.20
16827;DHT22;8530;49.540;8.576;2024-03-08T14:16:17;14.20;39.10
16827;DHT22;8530;49.540;8.576;2024-03-08T14:18:45;14.20;39.10
16827;DHT22;8530;49.540;8.576;2024-03-08T14:21:11;14.20;39.20
16827;DHT22;8530;49.540;8.576;2024-03-08T14:23:41;14.10;39.00
16827;DHT22;8530;49.540;8.576;2024-03-08T14:26:09;14.10;39.00
16827;DHT22;8530;49.540;8.576;2024-03-08T14:28:36;14.10;39.10
16827;DHT22;8530;49.540;8.576;2024-03-08T14:31:04;14.10;39.10
16827;DHT22;8530;49.540;8.576;2024-03-08T14:33:36;14.20;39.20
16827;DHT22;8530;49.540;8.576;2024-03-08T14:36:03;14.10;39.20
16827;DHT22;8530;49.540;8.576;2024-03-08T14:38:31;14.20;39.30
16827;DHT22;8530;49.540;8.576;2024-03-08T14:40:58;14.20;39.30
16827;DHT22;8530;49.540;8.576;2024-03-08T14:43:26;14.20;39.20
16827;DHT22;8530;49.540;8.576;2024-03-08T14:45:53;14.20;39.20
16827;DHT22;8530;49.540;8.576;2024-03-08T14:48:19;14.10;39.00
16827;DHT22;8530;49.540;8.576;2024-03-08T14:50:47;14.10;39.20
16827;DHT22;8530;49.540;8.576;2024-03-08T14:53:13;14.10;39.30
16827;DHT22;8530;49.540;8.576;2024-03-08T14:55:41;14.10;39.20
16827;DHT22;8530;49.540;8.576;2024-03-08T14:58:09;14.10;39.20
16827;DHT22;8530;49.540;8.576;2024-03-08T15:00:37;14.10;39.30
16827;DHT22;8530;49.540;8.576;2024-03-08T15:03:05;14.00;39.20
16827;DHT22;8530;49.540;8.576;2024-03-08T15:05:33;14.00;39.20
16827;DHT22;8530;49.540;8.576;2024-03-08T15:08:04;14.00;39.30
16827;DHT22;8530;49.540;8.576;2024-03-08T15:10:34;14.00;39.40
16827;DHT22;8530;49.540;8.576;2024-03-08T15:13:01;14.00;39.50
16827;DHT22;8530;49.540;8.576;2024-03-08T15:15:40;13.90;39.40
16827;DHT22;8530;49.540;8.576;2024-03-08T15:18:08;13.90;39.50
16827;DHT22;8530;49.540;8.576;2024-03-08T15:20:36;13.80;39.50
16827;DHT22;8530;49.540;8.576;2024-03-08T15:23:03;13.80;39.50
16827;DHT22;8530;49.540;8.576;2024-03-08T15:25:31;13.70;39.50
16827;DHT22;8530;49.540;8.576;2024-03-08T15:28:00;13.70;39.60
16827;DHT22;8530;49.540;8.576;2024-03-08T15:30:29;13.60;39.60
16827;DHT22;8530;49.540;8.576;2024-03-08T15:33:00;13.60;39.70
16827;DHT22;8530;49.540;8.576;2024-03-08T15:35:28;13.60;39.70
16827;DHT22;8530;49.540;8.576;2024-03-08T15:37:57;13.50;39.70
16827;DHT22;8530;49.540;8.576;2024-03-08T15:40:25;13.50;39.80
16827;DHT22;8530;49.540;8.576;2024-03-08T15:42:55;13.40;39.80
16827;DHT22;8530;49.540;8.576;2024-03-08T15:45:23;13.40;40.10
16827;DHT22;8530;49.540;8.576;2024-03-08T15:47:52;13.30;39.80
16827;DHT22;8530;49.540;8.576;2024-03-08T15:50:20;13.30;40.00
16827;DHT22;8530;49.540;8.576;2024-03-08T15:52:49;13.20;40.00
16827;DHT22;8530;49.540;8.576;2024-03-08T15:55:18;13.20;40.10
16827;DHT22;8530;49.540;8.576;2024-03-08T15:57:48;13.10;40.10
16827;DHT22;8530;49.540;8.576;2024-03-08T16:00:17;13.00;40.10